sensor_id;sensor_type;location;lat;lon;timestamp;pressure;altitude;pressure_sealevel;temperature;humidity
37078;BME280;22989;55.998;37.212;2023-02-10T00:01:22;-11298.94;;;-145.39;50.65
37078;BME280;22989;55.998;37.212;2023-02-10T00:03:48;-11298.94;;;-145.39;50.71
37078;BME280;22989;55.998;37.212;2023-02-10T00:06:15;-11298.94;;;-145.39;50.83
37078;BME280;22989;55.998;37.212;2023-02-10T00:08:41;-11298.94;;;-145.39;50.68
37078;BME280;22989;55.998;37.212;2023-02-10T00:11:10;-11298.94;;;-145.39;50.52
37078;BME280;22989;55.998;37.212;2023-02-10T00:13:37;-11298.94;;;-145.39;50.49
37078;BME280;22989;55.998;37.212;2023-02-10T00:16:05;-11298.94;;;-145.39;50.56
37078;BME280;22989;55.998;37.212;2023-02-10T00:18:31;-11298.94;;;-145.39;50.60
37078;BME280;22989;55.998;37.212;2023-02-10T00:21:22;-11298.94;;;-145.39;50.37
37078;BME280;22989;55.998;37.212;2023-02-10T00:23:48;-11298.94;;;-145.39;50.56
37078;BME280;22989;55.998;37.212;2023-02-10T00:26:13;-11298.94;;;-145.39;50.29
37078;BME280;22989;55.998;37.212;2023-02-10T00:28:42;-11298.94;;;-145.39;50.40
37078;BME280;22989;55.998;37.212;2023-02-10T00:31:11;-11298.94;;;-145.39;50.46
37078;BME280;22989;55.998;37.212;2023-02-10T00:33:37;-11298.94;;;-145.39;50.52
37078;BME280;22989;55.998;37.212;2023-02-10T00:36:14;-11298.94;;;-145.39;50.44
37078;BME280;22989;55.998;37.212;2023-02-10T00:38:41;-11298.94;;;-145.39;50.42
37078;BME280;22989;55.998;37.212;2023-02-10T00:41:12;-11298.94;;;-145.39;50.53
37078;BME280;22989;55.998;37.212;2023-02-10T00:43:38;-11298.94;;;-145.39;50.65
37078;BME280;22989;55.998;37.212;2023-02-10T00:46:08;-11298.94;;;-145.39;50.67
37078;BME280;22989;55.998;37.212;2023-02-10T00:48:34;-11298.94;;;-145.39;50.68
37078;BME280;22989;55.998;37.212;2023-02-10T00:51:00;-11298.94;;;-145.39;50.56
37078;BME280;22989;55.998;37.212;2023-02-10T00:53:26;-11298.94;;;-145.39;50.72
37078;BME280;22989;55.998;37.212;2023-02-10T00:55:51;-11298.94;;;-145.39;50.46
37078;BME280;22989;55.998;37.212;2023-02-10T00:58:17;-11298.94;;;-145.39;50.47
37078;BME280;22989;55.998;37.212;2023-02-10T01:00:43;-11298.94;;;-145.39;50.75
37078;BME280;22989;55.998;37.212;2023-02-10T01:03:09;-11298.94;;;-145.39;50.68
37078;BME280;22989;55.998;37.212;2023-02-10T01:05:34;-11298.94;;;-145.39;51.00
37078;BME280;22989;55.998;37.212;2023-02-10T01:08:00;-11298.94;;;-145.39;51.07
37078;BME280;22989;55.998;37.212;2023-02-10T01:10:26;-11298.94;;;-145.39;51.00
37078;BME280;22989;55.998;37.212;2023-02-10T01:12:52;-11298.94;;;-145.39;51.22
37078;BME280;22989;55.998;37.212;2023-02-10T01:15:17;-11298.94;;;-145.39;50.87
37078;BME280;22989;55.998;37.212;2023-02-10T01:17:43;-11298.94;;;-145.39;51.30
37078;BME280;22989;55.998;37.212;2023-02-10T01:20:10;-11298.94;;;-145.39;51.22
37078;BME280;22989;55.998;37.212;2023-02-10T01:22:36;-11298.94;;;-145.39;51.23
37078;BME280;22989;55.998;37.212;2023-02-10T01:25:03;-11298.94;;;-145.39;51.45
37078;BME280;22989;55.998;37.212;2023-02-10T01:27:29;-11298.94;;;-145.39;51.29
37078;BME280;22989;55.998;37.212;2023-02-10T01:29:55;-11298.94;;;-145.39;51.39
37078;BME280;22989;55.998;37.212;2023-02-10T01:32:20;-11298.94;;;-145.39;51.42
37078;BME280;22989;55.998;37.212;2023-02-10T01:34:46;-11298.94;;;-145.39;51.44
37078;BME280;22989;55.998;37.212;2023-02-10T01:37:11;-11298.94;;;-145.39;51.37
37078;BME280;22989;55.998;37.212;2023-02-10T01:39:37;-11298.94;;;-145.39;51.54
37078;BME280;22989;55.998;37.212;2023-02-10T01:42:03;-11298.94;;;-145.39;51.34
37078;BME280;22989;55.998;37.212;2023-02-10T01:46:55;-11298.94;;;-145.39;51.43
37078;BME280;22989;55.998;37.212;2023-02-10T01:49:25;-11298.94;;;-145.39;51.72
37078;BME280;22989;55.998;37.212;2023-02-10T01:51:56;-11298.94;;;-145.39;51.34
37078;BME280;22989;55.998;37.212;2023-02-10T01:54:26;-11298.94;;;-145.39;51.52
37078;BME280;22989;55.998;37.212;2023-02-10T01:56:53;-11298.94;;;-145.39;51.66
37078;BME280;22989;55.998;37.212;2023-02-10T01:59:20;-11298.94;;;-145.39;51.70
37078;BME280;22989;55.998;37.212;2023-02-10T02:01:49;-11298.94;;;-145.39;51.61
37078;BME280;22989;55.998;37.212;2023-02-10T02:04:15;-11298.94;;;-145.39;51.75
37078;BME280;22989;55.998;37.212;2023-02-10T02:06:41;-11298.94;;;-145.39;51.58
37078;BME280;22989;55.998;37.212;2023-02-10T02:09:08;-11298.94;;;-145.39;51.70
37078;BME280;22989;55.998;37.212;2023-02-10T02:14:52;-11298.94;;;-145.39;51.81
37078;BME280;22989;55.998;37.212;2023-02-10T02:23:34;-11298.94;;;-145.39;51.52
37078;BME280;22989;55.998;37.212;2023-02-10T02:36:47;-11298.94;;;-145.39;51.60
37078;BME280;22989;55.998;37.212;2023-02-10T02:39:14;-11298.94;;;-145.39;51.61
37078;BME280;22989;55.998;37.212;2023-02-10T02:41:40;-11298.94;;;-145.39;51.80
37078;BME280;22989;55.998;37.212;2023-02-10T02:44:06;-11298.94;;;-145.39;51.77
37078;BME280;22989;55.998;37.212;2023-02-10T02:51:52;-11298.94;;;-145.39;51.85
37078;BME280;22989;55.998;37.212;2023-02-10T02:54:26;-11298.94;;;-145.39;51.87
37078;BME280;22989;55.998;37.212;2023-02-10T02:57:09;-11298.94;;;-145.39;51.92
37078;BME280;22989;55.998;37.212;2023-02-10T03:00:05;-11298.94;;;-145.39;51.77
37078;BME280;22989;55.998;37.212;2023-02-10T03:02:34;-11298.94;;;-145.39;51.98
37078;BME280;22989;55.998;37.212;2023-02-10T03:05:03;-11298.94;;;-145.39;51.83
37078;BME280;22989;55.998;37.212;2023-02-10T03:07:28;-11298.94;;;-145.39;52.03
37078;BME280;22989;55.998;37.212;2023-02-10T03:09:54;-11298.94;;;-145.39;51.95
37078;BME280;22989;55.998;37.212;2023-02-10T03:12:19;-11298.94;;;-145.39;52.00
37078;BME280;22989;55.998;37.212;2023-02-10T03:14:45;-11298.94;;;-145.39;52.05
37078;BME280;22989;55.998;37.212;2023-02-10T03:17:11;-11298.94;;;-145.39;52.22
37078;BME280;22989;55.998;37.212;2023-02-10T03:19:36;-11298.94;;;-145.39;52.25
37078;BME280;22989;55.998;37.212;2023-02-10T03:22:02;-11298.94;;;-145.39;52.35
37078;BME280;22989;55.998;37.212;2023-02-10T03:24:28;-11298.94;;;-145.39;52.49
37078;BME280;22989;55.998;37.212;2023-02-10T03:26:53;-11298.94;;;-145.39;52.44
37078;BME280;22989;55.998;37.212;2023-02-10T03:29:19;-11298.94;;;-145.39;52.56
37078;BME280;22989;55.998;37.212;2023-02-10T03:31:44;-11298.94;;;-145.39;52.68
37078;BME280;22989;55.998;37.212;2023-02-10T03:34:11;-11298.94;;;-145.39;52.75
37078;BME280;22989;55.998;37.212;2023-02-10T03:36:36;-11298.94;;;-145.39;52.89
37078;BME280;22989;55.998;37.212;2023-02-10T03:39:03;-11298.94;;;-145.39;53.00
37078;BME280;22989;55.998;37.212;2023-02-10T03:41:29;-11298.94;;;-145.39;53.18
37078;BME280;22989;55.998;37.212;2023-02-10T03:43:55;-11298.94;;;-145.39;53.15
37078;BME280;22989;55.998;37.212;2023-02-10T03:46:20;-11298.94;;;-145.39;53.31
37078;BME280;22989;55.998;37.212;2023-02-10T03:48:47;-11298.94;;;-145.39;53.22
37078;BME280;22989;55.998;37.212;2023-02-10T03:51:14;-11298.94;;;-145.39;53.64
37078;BME280;22989;55.998;37.212;2023-02-10T03:53:40;-11298.94;;;-145.39;53.86
37078;BME280;22989;55.998;37.212;2023-02-10T03:56:06;-11298.94;;;-145.39;53.86
37078;BME280;22989;55.998;37.212;2023-02-10T03:58:33;-11298.94;;;-145.39;53.92
37078;BME280;22989;55.998;37.212;2023-02-10T04:00:58;-11298.94;;;-145.39;53.88
37078;BME280;22989;55.998;37.212;2023-02-10T04:03:24;-11298.94;;;-145.39;54.27
37078;BME280;22989;55.998;37.212;2023-02-10T04:05:49;-11298.94;;;-145.39;54.50
37078;BME280;22989;55.998;37.212;2023-02-10T04:08:15;-11298.94;;;-145.39;54.42
37078;BME280;22989;55.998;37.212;2023-02-10T04:10:41;-11298.94;;;-145.39;54.56
37078;BME280;22989;55.998;37.212;2023-02-10T04:13:07;-11298.94;;;-145.39;54.94
37078;BME280;22989;55.998;37.212;2023-02-10T04:15:32;-11298.94;;;-145.39;55.47
37078;BME280;22989;55.998;37.212;2023-02-10T04:17:58;-11298.94;;;-145.39;55.89
37078;BME280;22989;55.998;37.212;2023-02-10T04:20:24;-11298.94;;;-145.39;55.91
37078;BME280;22989;55.998;37.212;2023-02-10T04:22:50;-11298.94;;;-145.39;55.71
37078;BME280;22989;55.998;37.212;2023-02-10T04:25:16;-11298.94;;;-145.39;55.47
37078;BME280;22989;55.998;37.212;2023-02-10T04:27:41;-11298.94;;;-145.39;55.40
37078;BME280;22989;55.998;37.212;2023-02-10T04:30:07;-11298.94;;;-145.39;55.52
37078;BME280;22989;55.998;37.212;2023-02-10T04:32:33;-11298.94;;;-145.39;55.33
37078;BME280;22989;55.998;37.212;2023-02-10T04:34:59;-11298.94;;;-145.39;55.23
37078;BME280;22989;55.998;37.212;2023-02-10T04:37:24;-11298.94;;;-145.39;55.37
37078;BME280;22989;55.998;37.212;2023-02-10T04:39:50;-11298.94;;;-145.39;55.22
37078;BME280;22989;55.998;37.212;2023-02-10T04:42:16;-11298.94;;;-145.39;55.27
37078;BME280;22989;55.998;37.212;2023-02-10T04:44:41;-11298.94;;;-145.39;55.29
37078;BME280;22989;55.998;37.212;2023-02-10T04:47:07;-11298.94;;;-145.39;55.36
37078;BME280;22989;55.998;37.212;2023-02-10T04:49:32;-11298.94;;;-145.39;55.35
37078;BME280;22989;55.998;37.212;2023-02-10T04:51:58;-11298.94;;;-145.39;55.33
37078;BME280;22989;55.998;37.212;2023-02-10T04:54:27;-11298.94;;;-145.39;55.18
37078;BME280;22989;55.998;37.212;2023-02-10T04:56:52;-11298.94;;;-145.39;55.44
37078;BME280;22989;55.998;37.212;2023-02-10T04:59:18;-11298.94;;;-145.39;55.32
37078;BME280;22989;55.998;37.212;2023-02-10T05:01:43;-11298.94;;;-145.39;55.41
37078;BME280;22989;55.998;37.212;2023-02-10T05:04:09;-11298.94;;;-145.39;55.23
37078;BME280;22989;55.998;37.212;2023-02-10T05:06:35;-11298.94;;;-145.39;55.22
37078;BME280;22989;55.998;37.212;2023-02-10T05:09:00;-11298.94;;;-145.39;55.20
37078;BME280;22989;55.998;37.212;2023-02-10T05:11:26;-11298.94;;;-145.39;55.50
37078;BME280;22989;55.998;37.212;2023-02-10T05:13:52;-11298.94;;;-145.39;55.26
37078;BME280;22989;55.998;37.212;2023-02-10T05:16:17;-11298.94;;;-145.39;55.32
37078;BME280;22989;55.998;37.212;2023-02-10T05:18:43;-11298.94;;;-145.39;55.55
37078;BME280;22989;55.998;37.212;2023-02-10T05:21:10;-11298.94;;;-145.39;55.69
37078;BME280;22989;55.998;37.212;2023-02-10T05:23:37;-11298.94;;;-145.39;55.87
37078;BME280;22989;55.998;37.212;2023-02-10T05:26:03;-11298.94;;;-145.39;55.57
37078;BME280;22989;55.998;37.212;2023-02-10T05:28:28;-11298.94;;;-145.39;55.85
37078;BME280;22989;55.998;37.212;2023-02-10T05:30:54;-11298.94;;;-145.39;55.76
37078;BME280;22989;55.998;37.212;2023-02-10T05:33:20;-11298.94;;;-145.39;56.07
37078;BME280;22989;55.998;37.212;2023-02-10T05:35:45;-11298.94;;;-145.39;56.11
37078;BME280;22989;55.998;37.212;2023-02-10T05:38:11;-11298.94;;;-145.39;55.95
37078;BME280;22989;55.998;37.212;2023-02-10T05:40:37;-11298.94;;;-145.39;56.23
37078;BME280;22989;55.998;37.212;2023-02-10T05:43:03;-11298.94;;;-145.39;56.12
37078;BME280;22989;55.998;37.212;2023-02-10T05:45:29;-11298.94;;;-145.39;56.24
37078;BME280;22989;55.998;37.212;2023-02-10T05:47:54;-11298.94;;;-145.39;55.95
37078;BME280;22989;55.998;37.212;2023-02-10T05:50:20;-11298.94;;;-145.39;56.02
37078;BME280;22989;55.998;37.212;2023-02-10T05:52:46;-11298.94;;;-145.39;55.95
37078;BME280;22989;55.998;37.212;2023-02-10T05:55:12;-11298.94;;;-145.39;55.99
37078;BME280;22989;55.998;37.212;2023-02-10T05:57:38;-11298.94;;;-145.39;56.27
37078;BME280;22989;55.998;37.212;2023-02-10T06:00:05;-11298.94;;;-145.39;55.96
37078;BME280;22989;55.998;37.212;2023-02-10T06:02:38;-11298.94;;;-145.39;55.89
37078;BME280;22989;55.998;37.212;2023-02-10T06:05:04;-11298.94;;;-145.39;55.83
37078;BME280;22989;55.998;37.212;2023-02-10T06:07:29;-11298.94;;;-145.39;55.90
37078;BME280;22989;55.998;37.212;2023-02-10T06:09:55;-11298.94;;;-145.39;55.77
37078;BME280;22989;55.998;37.212;2023-02-10T06:12:20;-11298.94;;;-145.39;55.65
37078;BME280;22989;55.998;37.212;2023-02-10T06:14:46;-11298.94;;;-145.39;55.58
37078;BME280;22989;55.998;37.212;2023-02-10T06:17:12;-11298.94;;;-145.39;55.56
37078;BME280;22989;55.998;37.212;2023-02-10T06:19:38;-11298.94;;;-145.39;55.51
37078;BME280;22989;55.998;37.212;2023-02-10T06:22:05;-11298.94;;;-145.39;55.63
37078;BME280;22989;55.998;37.212;2023-02-10T06:24:31;-11298.94;;;-145.39;55.46
37078;BME280;22989;55.998;37.212;2023-02-10T06:26:57;-11298.94;;;-145.39;55.58
37078;BME280;22989;55.998;37.212;2023-02-10T06:29:23;-11298.94;;;-145.39;55.41
37078;BME280;22989;55.998;37.212;2023-02-10T06:31:49;-11298.94;;;-145.39;55.54
37078;BME280;22989;55.998;37.212;2023-02-10T06:34:14;-11298.94;;;-145.39;55.19
37078;BME280;22989;55.998;37.212;2023-02-10T06:36:40;-11298.94;;;-145.39;55.48
37078;BME280;22989;55.998;37.212;2023-02-10T06:39:06;-11298.94;;;-145.39;55.32
37078;BME280;22989;55.998;37.212;2023-02-10T06:41:32;-11298.94;;;-145.39;54.99
37078;BME280;22989;55.998;37.212;2023-02-10T06:43:58;-11298.94;;;-145.39;54.96
37078;BME280;22989;55.998;37.212;2023-02-10T06:46:24;-11298.94;;;-145.39;54.81
37078;BME280;22989;55.998;37.212;2023-02-10T06:48:49;-11298.94;;;-145.39;54.46
37078;BME280;22989;55.998;37.212;2023-02-10T06:51:15;-11298.94;;;-145.39;54.44
37078;BME280;22989;55.998;37.212;2023-02-10T06:53:41;-11298.94;;;-145.39;54.09
37078;BME280;22989;55.998;37.212;2023-02-10T06:56:08;-11298.94;;;-145.39;53.16
37078;BME280;22989;55.998;37.212;2023-02-10T06:58:34;-11298.94;;;-145.39;52.60
37078;BME280;22989;55.998;37.212;2023-02-10T07:00:59;-11298.94;;;-145.39;52.50
37078;BME280;22989;55.998;37.212;2023-02-10T07:03:27;-11298.94;;;-145.39;52.22
37078;BME280;22989;55.998;37.212;2023-02-10T07:05:53;-11298.94;;;-145.39;52.43
37078;BME280;22989;55.998;37.212;2023-02-10T07:08:18;-11298.94;;;-145.39;52.32
37078;BME280;22989;55.998;37.212;2023-02-10T07:10:44;-11298.94;;;-145.39;52.37
37078;BME280;22989;55.998;37.212;2023-02-10T07:13:10;-11298.94;;;-145.39;52.20
37078;BME280;22989;55.998;37.212;2023-02-10T07:15:35;-11298.94;;;-145.39;52.10
37078;BME280;22989;55.998;37.212;2023-02-10T07:18:01;-11298.94;;;-145.39;51.90
37078;BME280;22989;55.998;37.212;2023-02-10T07:20:27;-11298.94;;;-145.39;51.28
37078;BME280;22989;55.998;37.212;2023-02-10T07:22:52;-11298.94;;;-145.39;50.31
37078;BME280;22989;55.998;37.212;2023-02-10T07:25:18;-11298.94;;;-145.39;49.92
37078;BME280;22989;55.998;37.212;2023-02-10T07:27:44;-11298.94;;;-145.39;49.21
37078;BME280;22989;55.998;37.212;2023-02-10T07:30:11;-11298.94;;;-145.39;49.04
37078;BME280;22989;55.998;37.212;2023-02-10T07:32:37;-11298.94;;;-145.39;48.66
37078;BME280;22989;55.998;37.212;2023-02-10T07:35:03;-11298.94;;;-145.39;48.82
37078;BME280;22989;55.998;37.212;2023-02-10T07:37:29;-11298.94;;;-145.39;48.78
37078;BME280;22989;55.998;37.212;2023-02-10T07:39:54;-11298.94;;;-145.39;48.48
37078;BME280;22989;55.998;37.212;2023-02-10T07:42:20;-11298.94;;;-145.39;48.38
37078;BME280;22989;55.998;37.212;2023-02-10T07:45:06;-11298.94;;;-145.39;47.88
37078;BME280;22989;55.998;37.212;2023-02-10T07:47:31;-11298.94;;;-145.39;47.47
37078;BME280;22989;55.998;37.212;2023-02-10T07:49:57;-11298.94;;;-145.39;46.97
37078;BME280;22989;55.998;37.212;2023-02-10T07:52:23;-11298.94;;;-145.39;46.63
37078;BME280;22989;55.998;37.212;2023-02-10T07:54:49;-11298.94;;;-145.39;46.54
37078;BME280;22989;55.998;37.212;2023-02-10T07:57:15;-11298.94;;;-145.39;46.60
37078;BME280;22989;55.998;37.212;2023-02-10T07:59:41;-11298.94;;;-145.39;46.46
37078;BME280;22989;55.998;37.212;2023-02-10T08:02:10;-11298.94;;;-145.39;46.25
37078;BME280;22989;55.998;37.212;2023-02-10T08:04:36;-11298.94;;;-145.39;45.85
37078;BME280;22989;55.998;37.212;2023-02-10T08:07:01;-11298.94;;;-145.39;45.63
37078;BME280;22989;55.998;37.212;2023-02-10T08:09:27;-11298.94;;;-145.39;45.33
37078;BME280;22989;55.998;37.212;2023-02-10T08:11:52;-11298.94;;;-145.39;45.14
37078;BME280;22989;55.998;37.212;2023-02-10T08:14:18;-11298.94;;;-145.39;45.23
37078;BME280;22989;55.998;37.212;2023-02-10T08:16:44;-11298.94;;;-145.39;45.06
37078;BME280;22989;55.998;37.212;2023-02-10T08:19:09;-11298.94;;;-145.39;45.04
37078;BME280;22989;55.998;37.212;2023-02-10T08:21:35;-11298.94;;;-145.39;45.09
37078;BME280;22989;55.998;37.212;2023-02-10T08:24:00;-11298.94;;;-145.39;44.76
37078;BME280;22989;55.998;37.212;2023-02-10T08:26:26;-11298.94;;;-145.39;44.75
37078;BME280;22989;55.998;37.212;2023-02-10T08:28:52;-11298.94;;;-145.39;44.61
37078;BME280;22989;55.998;37.212;2023-02-10T08:31:20;-11298.94;;;-145.39;44.53
37078;BME280;22989;55.998;37.212;2023-02-10T08:33:46;-11298.94;;;-145.39;44.69
37078;BME280;22989;55.998;37.212;2023-02-10T08:36:13;-11298.94;;;-145.39;44.61
37078;BME280;22989;55.998;37.212;2023-02-10T08:38:39;-11298.94;;;-145.39;44.51
37078;BME280;22989;55.998;37.212;2023-02-10T08:41:05;-11298.94;;;-145.39;44.29
37078;BME280;22989;55.998;37.212;2023-02-10T08:43:31;-11298.94;;;-145.39;44.15
37078;BME280;22989;55.998;37.212;2023-02-10T08:45:57;-11298.94;;;-145.39;44.13
37078;BME280;22989;55.998;37.212;2023-02-10T08:48:24;-11298.94;;;-145.39;44.05
37078;BME280;22989;55.998;37.212;2023-02-10T08:50:50;-11298.94;;;-145.39;43.92
37078;BME280;22989;55.998;37.212;2023-02-10T08:53:16;-11298.94;;;-145.39;43.61
37078;BME280;22989;55.998;37.212;2023-02-10T08:55:41;-11298.94;;;-145.39;43.85
37078;BME280;22989;55.998;37.212;2023-02-10T08:58:07;-11298.94;;;-145.39;43.88
37078;BME280;22989;55.998;37.212;2023-02-10T09:00:33;-11298.94;;;-145.39;44.00
37078;BME280;22989;55.998;37.212;2023-02-10T09:02:59;-11298.94;;;-145.39;44.03
37078;BME280;22989;55.998;37.212;2023-02-10T09:05:25;-11298.94;;;-145.39;44.21
37078;BME280;22989;55.998;37.212;2023-02-10T09:07:50;-11298.94;;;-145.39;44.15
37078;BME280;22989;55.998;37.212;2023-02-10T09:10:16;-11298.94;;;-145.39;44.15
37078;BME280;22989;55.998;37.212;2023-02-10T09:12:43;-11298.94;;;-145.39;44.10
37078;BME280;22989;55.998;37.212;2023-02-10T09:15:09;-11298.94;;;-145.39;43.90
37078;BME280;22989;55.998;37.212;2023-02-10T09:17:35;-11298.94;;;-145.39;43.92
37078;BME280;22989;55.998;37.212;2023-02-10T09:20:00;-11298.94;;;-145.39;43.78
37078;BME280;22989;55.998;37.212;2023-02-10T09:22:26;-11298.94;;;-145.39;43.53
37078;BME280;22989;55.998;37.212;2023-02-10T09:24:51;-11298.94;;;-145.39;43.53
37078;BME280;22989;55.998;37.212;2023-02-10T09:27:18;-11298.94;;;-145.39;43.70
37078;BME280;22989;55.998;37.212;2023-02-10T09:29:45;-11298.94;;;-145.39;43.46
37078;BME280;22989;55.998;37.212;2023-02-10T09:32:11;-11298.94;;;-145.39;43.19
37078;BME280;22989;55.998;37.212;2023-02-10T09:34:36;-11298.94;;;-145.39;43.16
37078;BME280;22989;55.998;37.212;2023-02-10T09:37:03;-11298.94;;;-145.39;42.93
37078;BME280;22989;55.998;37.212;2023-02-10T09:39:29;-11298.94;;;-145.39;43.08
37078;BME280;22989;55.998;37.212;2023-02-10T09:42:03;-11298.94;;;-145.39;42.93
37078;BME280;22989;55.998;37.212;2023-02-10T09:44:34;-11298.94;;;-145.39;42.89
37078;BME280;22989;55.998;37.212;2023-02-10T09:55:23;-11298.94;;;-145.39;42.25
37078;BME280;22989;55.998;37.212;2023-02-10T09:57:55;-11298.94;;;-145.39;42.14
37078;BME280;22989;55.998;37.212;2023-02-10T10:00:28;-11298.94;;;-145.39;42.08
37078;BME280;22989;55.998;37.212;2023-02-10T10:02:56;-11298.94;;;-145.39;41.81
37078;BME280;22989;55.998;37.212;2023-02-10T10:08:04;-11298.94;;;-145.39;41.86
37078;BME280;22989;55.998;37.212;2023-02-10T10:10:39;-11298.94;;;-145.39;41.68
37078;BME280;22989;55.998;37.212;2023-02-10T10:13:25;-11298.94;;;-145.39;41.73
37078;BME280;22989;55.998;37.212;2023-02-10T10:24:42;-11298.94;;;-145.39;41.32
37078;BME280;22989;55.998;37.212;2023-02-10T10:30:25;-11298.94;;;-145.39;41.08
37078;BME280;22989;55.998;37.212;2023-02-10T10:33:00;-11298.94;;;-145.39;40.83
37078;BME280;22989;55.998;37.212;2023-02-10T10:35:35;-11298.94;;;-145.39;40.57
37078;BME280;22989;55.998;37.212;2023-02-10T10:38:24;-11298.94;;;-145.39;40.52
37078;BME280;22989;55.998;37.212;2023-02-10T10:40:53;-11298.94;;;-145.39;40.33
37078;BME280;22989;55.998;37.212;2023-02-10T10:43:29;-11298.94;;;-145.39;40.40
37078;BME280;22989;55.998;37.212;2023-02-10T10:48:53;-11298.94;;;-145.39;40.35
37078;BME280;22989;55.998;37.212;2023-02-10T10:51:20;-11298.94;;;-145.39;40.35
37078;BME280;22989;55.998;37.212;2023-02-10T10:53:50;-11298.94;;;-145.39;40.44
37078;BME280;22989;55.998;37.212;2023-02-10T10:59:22;-11298.94;;;-145.39;40.33
37078;BME280;22989;55.998;37.212;2023-02-10T11:01:51;-11298.94;;;-145.39;40.37
37078;BME280;22989;55.998;37.212;2023-02-10T11:04:25;-11298.94;;;-145.39;40.25
37078;BME280;22989;55.998;37.212;2023-02-10T11:06:56;-11298.94;;;-145.39;40.22
37078;BME280;22989;55.998;37.212;2023-02-10T11:09:24;-11298.94;;;-145.39;40.03
37078;BME280;22989;55.998;37.212;2023-02-10T11:11:53;-11298.94;;;-145.39;39.85
37078;BME280;22989;55.998;37.212;2023-02-10T11:14:27;-11298.94;;;-145.39;39.68
37078;BME280;22989;55.998;37.212;2023-02-10T11:16:59;-11298.94;;;-145.39;39.66
37078;BME280;22989;55.998;37.212;2023-02-10T11:19:32;-11298.94;;;-145.39;39.53
37078;BME280;22989;55.998;37.212;2023-02-10T11:21:59;-11298.94;;;-145.39;39.48
37078;BME280;22989;55.998;37.212;2023-02-10T11:24:28;-11298.94;;;-145.39;39.56
37078;BME280;22989;55.998;37.212;2023-02-10T11:27:14;-11298.94;;;-145.39;39.41
37078;BME280;22989;55.998;37.212;2023-02-10T11:29:50;-11298.94;;;-145.39;39.70
37078;BME280;22989;55.998;37.212;2023-02-10T11:32:18;-11298.94;;;-145.39;39.75
37078;BME280;22989;55.998;37.212;2023-02-10T11:34:46;-11298.94;;;-145.39;39.77
37078;BME280;22989;55.998;37.212;2023-02-10T11:37:35;-11298.94;;;-145.39;39.93
37078;BME280;22989;55.998;37.212;2023-02-10T11:40:14;-11298.94;;;-145.39;39.93
37078;BME280;22989;55.998;37.212;2023-02-10T11:42:45;-11298.94;;;-145.39;40.09
37078;BME280;22989;55.998;37.212;2023-02-10T11:45:19;-11298.94;;;-145.39;39.85
37078;BME280;22989;55.998;37.212;2023-02-10T11:47:45;-11298.94;;;-145.39;40.08
37078;BME280;22989;55.998;37.212;2023-02-10T11:50:27;-11298.94;;;-145.39;40.40
37078;BME280;22989;55.998;37.212;2023-02-10T11:52:53;-11298.94;;;-145.39;40.19
37078;BME280;22989;55.998;37.212;2023-02-10T11:55:20;-11298.94;;;-145.39;40.31
37078;BME280;22989;55.998;37.212;2023-02-10T12:01:03;-11298.94;;;-145.39;40.32
37078;BME280;22989;55.998;37.212;2023-02-10T12:03:40;-11298.94;;;-145.39;41.20
37078;BME280;22989;55.998;37.212;2023-02-10T12:14:28;-11298.94;;;-145.39;41.75
37078;BME280;22989;55.998;37.212;2023-02-10T12:17:36;-11298.94;;;-145.39;41.56
37078;BME280;22989;55.998;37.212;2023-02-10T12:23:11;-11298.94;;;-145.39;41.38
37078;BME280;22989;55.998;37.212;2023-02-10T12:25:52;-11298.94;;;-145.39;41.49
37078;BME280;22989;55.998;37.212;2023-02-10T12:34:15;-11298.94;;;-145.39;41.78
37078;BME280;22989;55.998;37.212;2023-02-10T12:52:53;-11298.94;;;-145.39;42.15
37078;BME280;22989;55.998;37.212;2023-02-10T12:55:48;-11298.94;;;-145.39;42.38
37078;BME280;22989;55.998;37.212;2023-02-10T12:58:34;-11298.94;;;-145.39;42.45
37078;BME280;22989;55.998;37.212;2023-02-10T13:01:34;-11298.94;;;-145.39;42.65
37078;BME280;22989;55.998;37.212;2023-02-10T13:04:27;-11298.94;;;-145.39;42.63
37078;BME280;22989;55.998;37.212;2023-02-10T13:07:02;-11298.94;;;-145.39;42.70
37078;BME280;22989;55.998;37.212;2023-02-10T13:09:57;-11298.94;;;-145.39;42.74
37078;BME280;22989;55.998;37.212;2023-02-10T13:12:38;-11298.94;;;-145.39;42.82
37078;BME280;22989;55.998;37.212;2023-02-10T13:17:53;-11298.94;;;-145.39;43.01
37078;BME280;22989;55.998;37.212;2023-02-10T13:20:37;-11298.94;;;-145.39;42.92
37078;BME280;22989;55.998;37.212;2023-02-10T13:31:36;-11298.94;;;-145.39;43.05
37078;BME280;22989;55.998;37.212;2023-02-10T13:34:25;-11298.94;;;-145.39;43.07
37078;BME280;22989;55.998;37.212;2023-02-10T13:37:05;-11298.94;;;-145.39;43.04
37078;BME280;22989;55.998;37.212;2023-02-10T13:39:32;-11298.94;;;-145.39;43.20
37078;BME280;22989;55.998;37.212;2023-02-10T13:42:24;-11298.94;;;-145.39;43.04
37078;BME280;22989;55.998;37.212;2023-02-10T13:45:00;-11298.94;;;-145.39;43.11
37078;BME280;22989;55.998;37.212;2023-02-10T13:47:35;-11298.94;;;-145.39;43.16
37078;BME280;22989;55.998;37.212;2023-02-10T13:52:31;-11298.94;;;-145.39;43.23
37078;BME280;22989;55.998;37.212;2023-02-10T13:57:38;-11298.94;;;-145.39;43.33
37078;BME280;22989;55.998;37.212;2023-02-10T14:00:15;-11298.94;;;-145.39;43.35
37078;BME280;22989;55.998;37.212;2023-02-10T14:02:42;-11298.94;;;-145.39;43.32
37078;BME280;22989;55.998;37.212;2023-02-10T14:05:22;-11298.94;;;-145.39;43.37
37078;BME280;22989;55.998;37.212;2023-02-10T14:07:48;-11298.94;;;-145.39;43.35
37078;BME280;22989;55.998;37.212;2023-02-10T14:15:32;-11298.94;;;-145.39;43.41
37078;BME280;22989;55.998;37.212;2023-02-10T14:18:22;-11298.94;;;-145.39;43.29
37078;BME280;22989;55.998;37.212;2023-02-10T14:20:58;-11298.94;;;-145.39;43.80
37078;BME280;22989;55.998;37.212;2023-02-10T14:23:25;-11298.94;;;-145.39;43.90